createdAt,value
2023-05-22T00:05:23.098Z,412.97
2023-05-22T00:10:47.350Z,412.67
2023-05-22T00:16:39.285Z,412.65
2023-05-22T00:22:07.116Z,412.56
2023-05-22T00:27:46.683Z,411.95
2023-05-22T00:33:08.604Z,412.10
2023-05-22T00:40:13.857Z,412.56
2023-05-22T00:43:47.538Z,411.74
2023-05-22T00:49:06.639Z,411.17
2023-05-22T00:55:24.611Z,410.55
2023-05-22T00:59:47.733Z,409.15
2023-05-22T01:04:52.240Z,407.98
2023-05-22T01:10:09.463Z,407.71
2023-05-22T01:15:53.976Z,408.04
2023-05-22T01:21:11.108Z,408.73
2023-05-22T01:26:33.569Z,407.78
2023-05-22T01:32:14.027Z,406.56
2023-05-22T01:37:27.062Z,405.75
2023-05-22T01:43:00.656Z,405.89
2023-05-22T01:54:05.479Z,405.17
2023-05-22T01:58:57.289Z,404.36
2023-05-22T02:04:04.843Z,404.48
2023-05-22T02:09:16.828Z,404.90
2023-05-22T02:14:24.434Z,405.01
2023-05-22T02:19:44.117Z,404.94
2023-05-22T02:24:51.660Z,404.55
2023-05-22T02:30:19.664Z,405.38
2023-05-22T02:36:06.392Z,405.44
2023-05-22T02:41:19.060Z,405.35
2023-05-22T02:46:38.788Z,405.05
2023-05-22T02:51:56.513Z,404.79
2023-05-22T02:57:42.571Z,404.57
2023-05-22T03:02:52.152Z,403.95
2023-05-22T03:08:31.847Z,404.05
2023-05-22T03:13:51.784Z,404.42
2023-05-22T03:19:31.287Z,404.19
2023-05-22T03:25:11.660Z,403.63
2023-05-22T03:30:40.594Z,404.11
2023-05-22T03:35:53.643Z,404.13
2023-05-22T03:41:06.061Z,404.24
2023-05-22T03:46:13.611Z,404.82
2023-05-22T03:51:25.786Z,404.82
2023-05-22T03:56:50.209Z,404.38
2023-05-22T04:02:05.210Z,404.39
2023-05-22T04:07:21.253Z,404.14
2023-05-22T04:13:12.308Z,403.71
2023-05-22T04:19:21.541Z,403.86
2023-05-22T04:24:25.056Z,403.36
2023-05-22T04:30:46.875Z,403.51
2023-05-22T04:35:17.526Z,402.69
2023-05-22T04:40:28.781Z,401.70
2023-05-22T04:46:05.270Z,401.60
2023-05-22T04:51:31.440Z,401.65
2023-05-22T04:56:36.738Z,401.23
2023-05-22T05:01:53.904Z,401.20
2023-05-22T05:07:05.329Z,400.56
2023-05-22T05:13:02.735Z,400.54
2023-05-22T05:18:16.522Z,401.05
2023-05-22T05:23:45.574Z,401.12
2023-05-22T05:28:55.314Z,401.14
2023-05-22T05:34:59.781Z,400.52
2023-05-22T05:39:24.236Z,400.55
2023-05-22T05:44:34.232Z,400.75
2023-05-22T05:49:40.727Z,400.41
2023-05-22T05:54:57.584Z,400.61
2023-05-22T06:00:19.896Z,400.89
2023-05-22T06:05:45.820Z,400.41
2023-05-22T06:11:00.437Z,400.40
2023-05-22T06:16:19.758Z,400.29
2023-05-22T06:21:30.735Z,400.05
2023-05-22T06:26:32.030Z,399.83
2023-05-22T06:31:39.997Z,399.55
2023-05-22T06:36:47.482Z,399.93
2023-05-22T06:41:55.384Z,399.99
2023-05-22T06:47:09.263Z,400.54
2023-05-22T06:52:27.007Z,400.37
2023-05-22T06:58:22.050Z,400.18
2023-05-22T07:03:53.400Z,400.29
2023-05-22T07:09:01.463Z,399.69
2023-05-22T07:14:15.736Z,399.57
2023-05-22T07:19:35.252Z,399.51
2023-05-22T07:24:43.944Z,399.92
2023-05-22T07:29:50.225Z,399.43
2023-05-22T07:34:57.708Z,399.19
2023-05-22T07:40:10.820Z,399.42
2023-05-22T07:45:20.176Z,399.49
2023-05-22T07:50:34.574Z,399.19
2023-05-22T07:55:47.570Z,400.08
2023-05-22T08:00:50.210Z,399.91
2023-05-22T08:06:02.211Z,399.77
2023-05-22T08:11:36.984Z,400.29
2023-05-22T08:16:38.793Z,401.03
2023-05-22T08:21:47.347Z,400.74
2023-05-22T08:26:55.133Z,400.96
2023-05-22T08:32:55.024Z,400.87
2023-05-22T08:37:43.996Z,401.16
2023-05-22T08:42:31.309Z,401.65
2023-05-22T08:47:45.317Z,402.16
2023-05-22T08:52:50.878Z,402.55
2023-05-22T08:58:35.757Z,402.83
2023-05-22T09:04:22.004Z,402.46
2023-05-22T09:09:40.954Z,403.11
2023-05-22T09:15:28.835Z,403.20
2023-05-22T09:20:36.413Z,403.31
2023-05-22T09:25:50.281Z,403.79
2023-05-22T09:31:33.836Z,403.20
2023-05-22T09:36:39.659Z,404.10
2023-05-22T09:42:51.750Z,403.33
2023-05-22T09:47:11.573Z,404.08
2023-05-22T09:53:05.746Z,404.48
2023-05-22T09:58:36.376Z,404.50
2023-05-22T10:04:59.738Z,404.73
2023-05-22T10:09:28.436Z,405.39
2023-05-22T10:15:18.515Z,405.68
2023-05-22T10:19:59.796Z,406.12
2023-05-22T10:25:10.766Z,405.70
2023-05-22T10:30:31.587Z,406.58
2023-05-22T10:35:47.151Z,406.79
2023-05-22T10:41:35.756Z,406.87
2023-05-22T10:47:23.392Z,407.45
2023-05-22T10:53:06.208Z,408.53
2023-05-22T10:58:33.860Z,409.05
2023-05-22T11:03:56.504Z,409.15
2023-05-22T11:09:18.151Z,409.67
2023-05-22T11:14:48.269Z,410.10
2023-05-22T11:19:59.621Z,409.99
2023-05-22T11:25:06.997Z,410.86
2023-05-22T11:30:42.889Z,410.96
2023-05-22T11:36:21.984Z,411.25
2023-05-22T11:41:42.568Z,411.31
2023-05-22T11:47:24.783Z,411.89
2023-05-22T11:52:48.875Z,412.39
2023-05-22T11:57:51.080Z,412.80
2023-05-22T12:03:01.877Z,411.92
2023-05-22T12:08:09.396Z,413.13
2023-05-22T12:18:11.823Z,413.28
2023-05-22T12:18:46.567Z,413.39
2023-05-22T12:24:04.969Z,413.89
2023-05-22T12:29:20.738Z,414.52
2023-05-22T12:35:33.793Z,415.02
2023-05-22T12:40:10.530Z,414.16
2023-05-22T12:45:53.075Z,415.00
2023-05-22T12:51:51.013Z,414.92
2023-05-22T12:57:33.709Z,415.06
2023-05-22T13:02:50.527Z,415.27
2023-05-22T13:08:34.465Z,415.36
2023-05-22T13:14:19.304Z,415.92
2023-05-22T13:20:01.783Z,415.97
2023-05-22T13:25:27.823Z,416.68
2023-05-22T13:37:23.917Z,417.39
2023-05-22T13:42:08.362Z,417.71
2023-05-22T13:47:50.976Z,417.73
2023-05-22T13:59:01.264Z,418.08
2023-05-22T14:04:23.692Z,418.16
2023-05-22T14:10:04.990Z,418.20
2023-05-22T14:15:32.025Z,418.48
2023-05-22T14:21:19.094Z,419.35
2023-05-22T14:32:25.913Z,420.19
2023-05-22T14:38:08.881Z,420.83
2023-05-22T14:43:32.482Z,420.88
2023-05-22T14:49:26.359Z,420.81
2023-05-22T14:54:26.256Z,421.23
2023-05-22T15:05:07.513Z,420.54
2023-05-22T15:24:02.496Z,421.12
2023-05-22T15:30:26.581Z,421.39
2023-05-22T15:42:19.779Z,422.34
2023-05-22T15:47:36.859Z,422.17
2023-05-22T15:53:24.303Z,421.61
2023-05-22T16:03:54.063Z,420.93
2023-05-22T16:11:40.612Z,420.34
2023-05-22T16:21:12.025Z,419.94
2023-05-22T16:26:58.140Z,420.21
2023-05-22T16:32:14.012Z,420.19
2023-05-22T16:51:06.064Z,420.71
2023-05-22T17:13:15.144Z,419.13
2023-05-22T17:18:26.385Z,418.73
2023-05-22T17:33:06.838Z,417.59
2023-05-22T18:14:46.200Z,418.21
2023-05-22T18:22:27.202Z,417.51
2023-05-22T18:47:19.862Z,414.28
2023-05-22T18:53:11.849Z,413.47
2023-05-22T19:15:58.858Z,409.81
2023-05-22T19:40:17.584Z,408.61
2023-05-22T19:49:06.943Z,408.53
2023-05-22T20:02:48.833Z,407.77
2023-05-22T20:09:04.377Z,407.11
2023-05-22T20:18:59.570Z,406.53
2023-05-22T20:24:24.216Z,406.06
2023-05-22T20:30:13.911Z,404.85
2023-05-22T20:35:37.345Z,405.14
2023-05-22T20:40:49.520Z,404.78
2023-05-22T20:51:30.815Z,403.84
2023-05-22T20:57:35.549Z,403.37
2023-05-22T21:07:08.614Z,402.25
2023-05-22T21:11:50.491Z,403.00
2023-05-22T21:12:21.132Z,402.33
2023-05-22T21:17:37.956Z,402.28
2023-05-22T21:23:00.448Z,401.74
2023-05-22T21:28:34.750Z,402.25
2023-05-22T21:34:10.479Z,401.80
2023-05-22T21:39:35.261Z,401.09
2023-05-22T21:44:33.433Z,400.34
2023-05-22T21:49:43.507Z,400.03
2023-05-22T21:54:56.467Z,399.60
2023-05-22T22:00:05.029Z,399.44
2023-05-22T22:11:17.545Z,399.90
2023-05-22T22:17:07.198Z,399.86
2023-05-22T22:22:41.342Z,399.98
2023-05-22T22:28:20.396Z,399.56
2023-05-22T22:34:13.237Z,399.90
2023-05-22T22:38:59.195Z,399.10
2023-05-22T22:44:15.142Z,398.33
2023-05-22T22:54:55.830Z,396.79
2023-05-22T23:00:03.890Z,396.31
2023-05-22T23:05:16.052Z,396.39
2023-05-22T23:10:34.622Z,395.92
2023-05-22T23:15:50.873Z,394.98
2023-05-22T23:21:19.654Z,395.13
2023-05-22T23:28:55.529Z,395.78
2023-05-22T23:32:15.112Z,394.96
2023-05-22T23:38:04.132Z,395.29
2023-05-22T23:43:20.772Z,395.10
2023-05-22T23:51:21.500Z,395.04
2023-05-22T23:54:22.630Z,394.88
